sensor_id;sensor_type;location;lat;lon;timestamp;P1;durP1;ratioP1;P2;durP2;ratioP2
15526;SDS011;7865;50.918;4.510;2023-04-07T00:01:06;26.07;;;12.20;;
15526;SDS011;7865;50.918;4.510;2023-04-07T00:06:08;19.00;;;12.87;;
15526;SDS011;7865;50.918;4.510;2023-04-07T00:11:10;18.93;;;12.97;;
15526;SDS011;7865;50.918;4.510;2023-04-07T00:16:12;23.70;;;12.73;;
15526;SDS011;7865;50.918;4.510;2023-04-07T00:21:14;23.13;;;14.10;;
15526;SDS011;7865;50.918;4.510;2023-04-07T00:26:16;24.67;;;14.13;;
15526;SDS011;7865;50.918;4.510;2023-04-07T00:31:18;24.33;;;14.03;;
15526;SDS011;7865;50.918;4.510;2023-04-07T00:36:21;22.80;;;14.17;;
15526;SDS011;7865;50.918;4.510;2023-04-07T00:41:23;30.07;;;15.20;;
15526;SDS011;7865;50.918;4.510;2023-04-07T00:46:25;21.70;;;13.87;;
15526;SDS011;7865;50.918;4.510;2023-04-07T00:51:27;27.80;;;15.47;;
15526;SDS011;7865;50.918;4.510;2023-04-07T00:56:29;30.13;;;15.33;;
15526;SDS011;7865;50.918;4.510;2023-04-07T01:01:38;29.77;;;15.10;;
15526;SDS011;7865;50.918;4.510;2023-04-07T01:06:47;27.73;;;16.00;;
15526;SDS011;7865;50.918;4.510;2023-04-07T01:17:05;21.70;;;14.87;;
15526;SDS011;7865;50.918;4.510;2023-04-07T01:22:14;29.10;;;16.47;;
15526;SDS011;7865;50.918;4.510;2023-04-07T01:32:52;28.77;;;16.23;;
15526;SDS011;7865;50.918;4.510;2023-04-07T01:37:57;28.30;;;14.53;;
15526;SDS011;7865;50.918;4.510;2023-04-07T01:43:00;25.63;;;15.33;;
15526;SDS011;7865;50.918;4.510;2023-04-07T01:48:04;34.60;;;14.53;;
15526;SDS011;7865;50.918;4.510;2023-04-07T01:53:08;31.87;;;16.40;;
15526;SDS011;7865;50.918;4.510;2023-04-07T01:58:12;34.30;;;16.87;;
15526;SDS011;7865;50.918;4.510;2023-04-07T02:03:17;32.83;;;15.57;;
15526;SDS011;7865;50.918;4.510;2023-04-07T02:08:24;28.27;;;16.13;;
15526;SDS011;7865;50.918;4.510;2023-04-07T02:13:32;30.70;;;17.17;;
15526;SDS011;7865;50.918;4.510;2023-04-07T02:18:36;35.27;;;17.40;;
15526;SDS011;7865;50.918;4.510;2023-04-07T02:23:38;39.30;;;19.10;;
15526;SDS011;7865;50.918;4.510;2023-04-07T02:28:41;42.87;;;21.03;;
15526;SDS011;7865;50.918;4.510;2023-04-07T02:33:43;36.67;;;21.17;;
15526;SDS011;7865;50.918;4.510;2023-04-07T02:38:46;41.53;;;21.33;;
15526;SDS011;7865;50.918;4.510;2023-04-07T02:43:48;41.10;;;20.83;;
15526;SDS011;7865;50.918;4.510;2023-04-07T02:48:50;40.87;;;22.87;;
15526;SDS011;7865;50.918;4.510;2023-04-07T02:53:52;43.93;;;22.10;;
15526;SDS011;7865;50.918;4.510;2023-04-07T02:58:55;45.53;;;22.97;;
15526;SDS011;7865;50.918;4.510;2023-04-07T03:03:57;43.10;;;21.67;;
15526;SDS011;7865;50.918;4.510;2023-04-07T03:09:00;45.93;;;22.40;;
15526;SDS011;7865;50.918;4.510;2023-04-07T03:14:02;45.10;;;23.10;;
15526;SDS011;7865;50.918;4.510;2023-04-07T03:19:05;41.23;;;21.10;;
15526;SDS011;7865;50.918;4.510;2023-04-07T03:24:11;47.80;;;23.43;;
15526;SDS011;7865;50.918;4.510;2023-04-07T03:29:13;45.80;;;22.43;;
15526;SDS011;7865;50.918;4.510;2023-04-07T03:34:16;41.93;;;23.33;;
15526;SDS011;7865;50.918;4.510;2023-04-07T03:39:19;45.67;;;23.13;;
15526;SDS011;7865;50.918;4.510;2023-04-07T03:44:23;42.47;;;23.90;;
15526;SDS011;7865;50.918;4.510;2023-04-07T03:49:25;40.10;;;23.90;;
15526;SDS011;7865;50.918;4.510;2023-04-07T03:54:28;44.97;;;23.97;;
15526;SDS011;7865;50.918;4.510;2023-04-07T03:59:30;41.47;;;23.70;;
15526;SDS011;7865;50.918;4.510;2023-04-07T04:04:37;49.63;;;24.13;;
15526;SDS011;7865;50.918;4.510;2023-04-07T04:09:41;47.73;;;24.20;;
15526;SDS011;7865;50.918;4.510;2023-04-07T04:14:44;46.23;;;23.90;;
15526;SDS011;7865;50.918;4.510;2023-04-07T04:19:48;42.90;;;21.90;;
15526;SDS011;7865;50.918;4.510;2023-04-07T04:25:14;54.50;;;22.30;;
15526;SDS011;7865;50.918;4.510;2023-04-07T04:30:22;48.13;;;24.77;;
15526;SDS011;7865;50.918;4.510;2023-04-07T04:35:28;47.20;;;23.20;;
15526;SDS011;7865;50.918;4.510;2023-04-07T04:40:46;41.17;;;22.47;;
15526;SDS011;7865;50.918;4.510;2023-04-07T04:45:51;43.90;;;21.57;;
15526;SDS011;7865;50.918;4.510;2023-04-07T04:50:57;45.00;;;21.47;;
15526;SDS011;7865;50.918;4.510;2023-04-07T04:55:59;38.77;;;21.80;;
15526;SDS011;7865;50.918;4.510;2023-04-07T05:01:28;40.50;;;22.07;;
15526;SDS011;7865;50.918;4.510;2023-04-07T05:06:46;42.83;;;21.97;;
15526;SDS011;7865;50.918;4.510;2023-04-07T05:11:50;53.00;;;24.10;;
15526;SDS011;7865;50.918;4.510;2023-04-07T05:16:54;48.97;;;23.57;;
15526;SDS011;7865;50.918;4.510;2023-04-07T05:22:01;45.40;;;22.97;;
15526;SDS011;7865;50.918;4.510;2023-04-07T05:27:07;48.70;;;24.40;;
15526;SDS011;7865;50.918;4.510;2023-04-07T05:32:10;50.73;;;24.47;;
15526;SDS011;7865;50.918;4.510;2023-04-07T05:37:12;53.00;;;24.23;;
15526;SDS011;7865;50.918;4.510;2023-04-07T05:42:14;50.43;;;24.40;;
15526;SDS011;7865;50.918;4.510;2023-04-07T05:47:19;51.63;;;25.10;;
15526;SDS011;7865;50.918;4.510;2023-04-07T05:52:24;50.83;;;25.37;;
15526;SDS011;7865;50.918;4.510;2023-04-07T05:57:35;57.27;;;27.03;;
15526;SDS011;7865;50.918;4.510;2023-04-07T06:02:38;56.87;;;25.43;;
15526;SDS011;7865;50.918;4.510;2023-04-07T06:07:45;60.13;;;25.50;;
15526;SDS011;7865;50.918;4.510;2023-04-07T06:12:47;51.80;;;25.30;;
15526;SDS011;7865;50.918;4.510;2023-04-07T06:17:50;47.60;;;22.77;;
15526;SDS011;7865;50.918;4.510;2023-04-07T06:22:52;51.07;;;24.00;;
15526;SDS011;7865;50.918;4.510;2023-04-07T06:27:55;47.93;;;23.17;;
15526;SDS011;7865;50.918;4.510;2023-04-07T06:32:57;44.00;;;23.43;;
15526;SDS011;7865;50.918;4.510;2023-04-07T06:37:59;45.30;;;21.53;;
15526;SDS011;7865;50.918;4.510;2023-04-07T06:43:02;47.60;;;22.30;;
15526;SDS011;7865;50.918;4.510;2023-04-07T06:48:13;37.23;;;20.63;;
15526;SDS011;7865;50.918;4.510;2023-04-07T06:53:16;46.13;;;21.67;;
15526;SDS011;7865;50.918;4.510;2023-04-07T06:58:18;43.97;;;21.13;;
15526;SDS011;7865;50.918;4.510;2023-04-07T07:03:19;34.13;;;18.67;;
15526;SDS011;7865;50.918;4.510;2023-04-07T07:08:22;27.53;;;15.87;;
15526;SDS011;7865;50.918;4.510;2023-04-07T07:13:25;27.63;;;14.63;;
15526;SDS011;7865;50.918;4.510;2023-04-07T07:18:27;21.47;;;12.77;;
15526;SDS011;7865;50.918;4.510;2023-04-07T07:23:32;18.97;;;11.53;;
15526;SDS011;7865;50.918;4.510;2023-04-07T07:28:35;17.80;;;10.93;;
15526;SDS011;7865;50.918;4.510;2023-04-07T07:33:37;17.50;;;9.97;;
15526;SDS011;7865;50.918;4.510;2023-04-07T07:38:41;17.27;;;11.03;;
15526;SDS011;7865;50.918;4.510;2023-04-07T07:43:43;17.03;;;10.07;;
15526;SDS011;7865;50.918;4.510;2023-04-07T07:48:46;18.47;;;11.87;;
15526;SDS011;7865;50.918;4.510;2023-04-07T07:53:48;20.53;;;11.87;;
15526;SDS011;7865;50.918;4.510;2023-04-07T07:58:50;22.33;;;12.37;;
15526;SDS011;7865;50.918;4.510;2023-04-07T08:03:52;17.80;;;12.10;;
15526;SDS011;7865;50.918;4.510;2023-04-07T08:08:55;24.03;;;12.03;;
15526;SDS011;7865;50.918;4.510;2023-04-07T08:13:58;11.77;;;9.13;;
15526;SDS011;7865;50.918;4.510;2023-04-07T08:19:00;10.47;;;8.13;;
15526;SDS011;7865;50.918;4.510;2023-04-07T08:24:02;13.20;;;8.03;;
15526;SDS011;7865;50.918;4.510;2023-04-07T08:29:05;13.87;;;6.87;;
15526;SDS011;7865;50.918;4.510;2023-04-07T08:34:07;11.23;;;6.27;;
15526;SDS011;7865;50.918;4.510;2023-04-07T08:39:09;7.70;;;4.90;;
15526;SDS011;7865;50.918;4.510;2023-04-07T08:44:11;11.13;;;5.90;;
15526;SDS011;7865;50.918;4.510;2023-04-07T08:49:13;8.03;;;4.90;;
15526;SDS011;7865;50.918;4.510;2023-04-07T08:54:18;13.50;;;5.97;;
15526;SDS011;7865;50.918;4.510;2023-04-07T08:59:22;10.40;;;5.20;;
15526;SDS011;7865;50.918;4.510;2023-04-07T09:04:29;8.27;;;4.90;;
15526;SDS011;7865;50.918;4.510;2023-04-07T09:09:31;9.37;;;5.00;;
15526;SDS011;7865;50.918;4.510;2023-04-07T09:14:33;7.83;;;5.23;;
15526;SDS011;7865;50.918;4.510;2023-04-07T09:19:35;9.07;;;3.80;;
15526;SDS011;7865;50.918;4.510;2023-04-07T09:24:37;7.33;;;3.50;;
15526;SDS011;7865;50.918;4.510;2023-04-07T09:29:40;7.27;;;3.53;;
15526;SDS011;7865;50.918;4.510;2023-04-07T09:34:43;6.63;;;3.87;;
15526;SDS011;7865;50.918;4.510;2023-04-07T09:39:48;5.67;;;3.97;;
15526;SDS011;7865;50.918;4.510;2023-04-07T09:44:52;6.83;;;3.00;;
15526;SDS011;7865;50.918;4.510;2023-04-07T09:49:54;7.77;;;2.70;;
15526;SDS011;7865;50.918;4.510;2023-04-07T09:54:57;4.43;;;2.87;;
15526;SDS011;7865;50.918;4.510;2023-04-07T09:59:59;4.17;;;2.93;;
15526;SDS011;7865;50.918;4.510;2023-04-07T10:05:01;6.70;;;2.20;;
15526;SDS011;7865;50.918;4.510;2023-04-07T10:10:04;4.97;;;2.40;;
15526;SDS011;7865;50.918;4.510;2023-04-07T10:15:11;2.27;;;1.57;;
15526;SDS011;7865;50.918;4.510;2023-04-07T10:20:17;5.33;;;2.17;;
15526;SDS011;7865;50.918;4.510;2023-04-07T10:25:21;4.87;;;1.70;;
15526;SDS011;7865;50.918;4.510;2023-04-07T10:30:30;2.07;;;1.60;;
15526;SDS011;7865;50.918;4.510;2023-04-07T10:41:30;7.40;;;2.50;;
15526;SDS011;7865;50.918;4.510;2023-04-07T10:57:13;5.00;;;1.87;;
15526;SDS011;7865;50.918;4.510;2023-04-07T11:07:41;6.97;;;2.10;;
15526;SDS011;7865;50.918;4.510;2023-04-07T11:12:56;7.13;;;1.83;;
15526;SDS011;7865;50.918;4.510;2023-04-07T11:18:10;5.80;;;2.37;;
15526;SDS011;7865;50.918;4.510;2023-04-07T11:23:20;7.03;;;2.10;;
15526;SDS011;7865;50.918;4.510;2023-04-07T11:28:24;5.57;;;2.00;;
15526;SDS011;7865;50.918;4.510;2023-04-07T11:33:28;7.57;;;2.03;;
15526;SDS011;7865;50.918;4.510;2023-04-07T11:38:35;5.77;;;2.13;;
15526;SDS011;7865;50.918;4.510;2023-04-07T11:43:38;7.43;;;2.20;;
15526;SDS011;7865;50.918;4.510;2023-04-07T11:48:44;6.07;;;2.00;;
15526;SDS011;7865;50.918;4.510;2023-04-07T11:53:52;4.67;;;1.93;;
15526;SDS011;7865;50.918;4.510;2023-04-07T11:58:56;7.07;;;1.70;;
15526;SDS011;7865;50.918;4.510;2023-04-07T12:04:02;7.03;;;2.00;;
15526;SDS011;7865;50.918;4.510;2023-04-07T12:09:06;4.13;;;2.20;;
15526;SDS011;7865;50.918;4.510;2023-04-07T12:14:09;5.80;;;1.87;;
15526;SDS011;7865;50.918;4.510;2023-04-07T12:19:11;5.60;;;2.60;;
15526;SDS011;7865;50.918;4.510;2023-04-07T12:24:13;2.80;;;1.87;;
15526;SDS011;7865;50.918;4.510;2023-04-07T12:29:16;10.20;;;2.40;;
15526;SDS011;7865;50.918;4.510;2023-04-07T12:34:20;6.43;;;2.13;;
15526;SDS011;7865;50.918;4.510;2023-04-07T12:39:22;7.47;;;2.17;;
15526;SDS011;7865;50.918;4.510;2023-04-07T12:44:24;4.43;;;1.73;;
15526;SDS011;7865;50.918;4.510;2023-04-07T12:49:26;3.33;;;1.70;;
15526;SDS011;7865;50.918;4.510;2023-04-07T12:54:28;7.38;;;2.47;;
15526;SDS011;7865;50.918;4.510;2023-04-07T12:59:31;3.47;;;1.88;;
15526;SDS011;7865;50.918;4.510;2023-04-07T13:04:32;6.25;;;1.80;;
15526;SDS011;7865;50.918;4.510;2023-04-07T13:09:36;5.18;;;1.50;;
15526;SDS011;7865;50.918;4.510;2023-04-07T13:14:38;2.20;;;1.60;;
15526;SDS011;7865;50.918;4.510;2023-04-07T13:19:54;9.13;;;2.03;;
15526;SDS011;7865;50.918;4.510;2023-04-07T13:24:58;10.10;;;2.30;;
15526;SDS011;7865;50.918;4.510;2023-04-07T13:30:02;5.37;;;1.63;;
15526;SDS011;7865;50.918;4.510;2023-04-07T13:35:04;4.27;;;1.87;;
15526;SDS011;7865;50.918;4.510;2023-04-07T13:40:07;6.37;;;1.70;;
15526;SDS011;7865;50.918;4.510;2023-04-07T13:45:09;7.97;;;1.97;;
15526;SDS011;7865;50.918;4.510;2023-04-07T13:50:11;3.60;;;1.73;;
15526;SDS011;7865;50.918;4.510;2023-04-07T13:55:13;2.20;;;1.50;;
15526;SDS011;7865;50.918;4.510;2023-04-07T14:00:16;2.30;;;0.93;;
15526;SDS011;7865;50.918;4.510;2023-04-07T14:05:18;4.80;;;1.90;;
15526;SDS011;7865;50.918;4.510;2023-04-07T14:10:20;3.33;;;1.70;;
15526;SDS011;7865;50.918;4.510;2023-04-07T14:15:22;5.63;;;1.97;;
15526;SDS011;7865;50.918;4.510;2023-04-07T14:20:24;2.20;;;0.97;;
15526;SDS011;7865;50.918;4.510;2023-04-07T14:25:28;4.17;;;1.20;;
15526;SDS011;7865;50.918;4.510;2023-04-07T14:30:29;2.67;;;1.27;;
15526;SDS011;7865;50.918;4.510;2023-04-07T14:35:32;3.93;;;1.40;;
15526;SDS011;7865;50.918;4.510;2023-04-07T14:40:37;4.77;;;1.30;;
15526;SDS011;7865;50.918;4.510;2023-04-07T14:45:39;2.07;;;0.90;;
15526;SDS011;7865;50.918;4.510;2023-04-07T14:50:41;4.97;;;1.20;;
15526;SDS011;7865;50.918;4.510;2023-04-07T14:55:43;2.07;;;0.90;;
15526;SDS011;7865;50.918;4.510;2023-04-07T15:00:45;4.50;;;1.35;;
15526;SDS011;7865;50.918;4.510;2023-04-07T15:05:47;2.17;;;1.50;;
15526;SDS011;7865;50.918;4.510;2023-04-07T15:10:49;3.40;;;1.55;;
15526;SDS011;7865;50.918;4.510;2023-04-07T15:15:51;3.03;;;1.23;;
15526;SDS011;7865;50.918;4.510;2023-04-07T15:20:53;5.57;;;2.13;;
15526;SDS011;7865;50.918;4.510;2023-04-07T15:25:55;4.83;;;1.70;;
15526;SDS011;7865;50.918;4.510;2023-04-07T15:30:58;5.13;;;1.60;;
15526;SDS011;7865;50.918;4.510;2023-04-07T15:36:02;6.03;;;1.70;;
15526;SDS011;7865;50.918;4.510;2023-04-07T15:41:05;4.67;;;1.50;;
15526;SDS011;7865;50.918;4.510;2023-04-07T15:46:07;3.40;;;1.50;;
15526;SDS011;7865;50.918;4.510;2023-04-07T15:51:09;4.57;;;1.33;;
15526;SDS011;7865;50.918;4.510;2023-04-07T15:56:11;3.50;;;1.60;;
15526;SDS011;7865;50.918;4.510;2023-04-07T16:01:14;6.07;;;2.20;;
15526;SDS011;7865;50.918;4.510;2023-04-07T16:06:16;3.53;;;1.87;;
15526;SDS011;7865;50.918;4.510;2023-04-07T16:11:18;4.27;;;1.97;;
15526;SDS011;7865;50.918;4.510;2023-04-07T16:16:20;7.23;;;2.03;;
15526;SDS011;7865;50.918;4.510;2023-04-07T16:21:22;7.60;;;1.97;;
15526;SDS011;7865;50.918;4.510;2023-04-07T16:26:24;6.90;;;1.97;;
15526;SDS011;7865;50.918;4.510;2023-04-07T16:31:27;9.13;;;2.00;;
15526;SDS011;7865;50.918;4.510;2023-04-07T16:36:29;6.83;;;1.80;;
15526;SDS011;7865;50.918;4.510;2023-04-07T16:41:31;4.47;;;1.77;;
15526;SDS011;7865;50.918;4.510;2023-04-07T16:46:33;3.57;;;1.20;;
15526;SDS011;7865;50.918;4.510;2023-04-07T16:51:35;5.77;;;1.70;;
15526;SDS011;7865;50.918;4.510;2023-04-07T16:56:37;5.80;;;1.67;;
15526;SDS011;7865;50.918;4.510;2023-04-07T17:01:39;4.93;;;1.87;;
15526;SDS011;7865;50.918;4.510;2023-04-07T17:06:43;4.03;;;1.80;;
15526;SDS011;7865;50.918;4.510;2023-04-07T17:11:45;3.23;;;1.77;;
15526;SDS011;7865;50.918;4.510;2023-04-07T17:16:47;6.20;;;1.90;;
15526;SDS011;7865;50.918;4.510;2023-04-07T17:21:49;4.37;;;1.60;;
15526;SDS011;7865;50.918;4.510;2023-04-07T17:26:51;4.07;;;1.83;;
15526;SDS011;7865;50.918;4.510;2023-04-07T17:31:53;4.43;;;1.53;;
15526;SDS011;7865;50.918;4.510;2023-04-07T17:36:58;7.57;;;1.57;;
15526;SDS011;7865;50.918;4.510;2023-04-07T17:42:00;5.07;;;2.40;;
15526;SDS011;7865;50.918;4.510;2023-04-07T17:47:02;4.53;;;1.67;;
15526;SDS011;7865;50.918;4.510;2023-04-07T17:52:04;3.27;;;1.60;;
15526;SDS011;7865;50.918;4.510;2023-04-07T17:57:06;4.57;;;2.07;;
15526;SDS011;7865;50.918;4.510;2023-04-07T18:02:09;6.57;;;2.37;;
15526;SDS011;7865;50.918;4.510;2023-04-07T18:07:11;6.50;;;2.30;;
15526;SDS011;7865;50.918;4.510;2023-04-07T18:12:14;5.13;;;2.47;;
15526;SDS011;7865;50.918;4.510;2023-04-07T18:17:16;8.33;;;2.73;;
15526;SDS011;7865;50.918;4.510;2023-04-07T18:22:18;6.67;;;2.37;;
15526;SDS011;7865;50.918;4.510;2023-04-07T18:27:20;6.53;;;2.33;;
15526;SDS011;7865;50.918;4.510;2023-04-07T18:32:25;8.77;;;2.80;;
15526;SDS011;7865;50.918;4.510;2023-04-07T18:37:27;10.47;;;2.30;;
15526;SDS011;7865;50.918;4.510;2023-04-07T18:42:32;9.03;;;2.67;;
15526;SDS011;7865;50.918;4.510;2023-04-07T18:47:34;5.00;;;2.40;;
15526;SDS011;7865;50.918;4.510;2023-04-07T18:52:36;9.20;;;3.33;;
15526;SDS011;7865;50.918;4.510;2023-04-07T18:57:38;5.33;;;2.47;;
15526;SDS011;7865;50.918;4.510;2023-04-07T19:02:40;6.63;;;2.60;;
15526;SDS011;7865;50.918;4.510;2023-04-07T19:07:45;5.27;;;2.40;;
15526;SDS011;7865;50.918;4.510;2023-04-07T19:12:47;7.37;;;2.70;;
15526;SDS011;7865;50.918;4.510;2023-04-07T19:17:49;8.03;;;3.27;;
15526;SDS011;7865;50.918;4.510;2023-04-07T19:22:51;5.87;;;2.80;;
15526;SDS011;7865;50.918;4.510;2023-04-07T19:27:53;7.73;;;3.20;;
15526;SDS011;7865;50.918;4.510;2023-04-07T19:32:55;9.27;;;3.00;;
15526;SDS011;7865;50.918;4.510;2023-04-07T19:37:57;4.70;;;2.67;;
15526;SDS011;7865;50.918;4.510;2023-04-07T19:42:59;11.07;;;2.90;;
15526;SDS011;7865;50.918;4.510;2023-04-07T19:48:01;7.97;;;3.13;;
15526;SDS011;7865;50.918;4.510;2023-04-07T19:53:04;7.93;;;4.13;;
15526;SDS011;7865;50.918;4.510;2023-04-07T19:58:05;12.20;;;4.47;;
15526;SDS011;7865;50.918;4.510;2023-04-07T20:03:08;6.70;;;3.50;;
15526;SDS011;7865;50.918;4.510;2023-04-07T20:08:10;5.93;;;2.77;;
15526;SDS011;7865;50.918;4.510;2023-04-07T20:13:12;7.13;;;3.20;;
15526;SDS011;7865;50.918;4.510;2023-04-07T20:18:14;12.10;;;3.23;;
15526;SDS011;7865;50.918;4.510;2023-04-07T20:23:18;13.57;;;3.17;;
15526;SDS011;7865;50.918;4.510;2023-04-07T20:28:22;11.10;;;3.33;;
15526;SDS011;7865;50.918;4.510;2023-04-07T20:33:25;11.83;;;3.10;;
15526;SDS011;7865;50.918;4.510;2023-04-07T20:38:27;11.27;;;3.30;;
15526;SDS011;7865;50.918;4.510;2023-04-07T20:43:29;12.00;;;4.40;;
15526;SDS011;7865;50.918;4.510;2023-04-07T20:48:32;18.50;;;4.10;;
15526;SDS011;7865;50.918;4.510;2023-04-07T20:53:34;12.53;;;3.97;;
15526;SDS011;7865;50.918;4.510;2023-04-07T20:58:36;9.43;;;4.37;;
15526;SDS011;7865;50.918;4.510;2023-04-07T21:03:38;10.53;;;4.37;;
15526;SDS011;7865;50.918;4.510;2023-04-07T21:08:41;17.50;;;4.57;;
15526;SDS011;7865;50.918;4.510;2023-04-07T21:13:43;12.23;;;4.17;;
15526;SDS011;7865;50.918;4.510;2023-04-07T21:18:45;10.10;;;4.83;;
15526;SDS011;7865;50.918;4.510;2023-04-07T21:23:47;15.07;;;5.00;;
15526;SDS011;7865;50.918;4.510;2023-04-07T21:28:50;14.33;;;5.03;;
15526;SDS011;7865;50.918;4.510;2023-04-07T21:33:52;14.10;;;4.87;;
15526;SDS011;7865;50.918;4.510;2023-04-07T21:38:54;14.60;;;5.43;;
15526;SDS011;7865;50.918;4.510;2023-04-07T21:43:56;14.33;;;6.00;;
15526;SDS011;7865;50.918;4.510;2023-04-07T21:48:58;13.30;;;5.43;;
15526;SDS011;7865;50.918;4.510;2023-04-07T21:54:00;11.17;;;6.10;;
15526;SDS011;7865;50.918;4.510;2023-04-07T21:59:02;14.63;;;5.87;;
15526;SDS011;7865;50.918;4.510;2023-04-07T22:04:04;17.00;;;5.80;;
15526;SDS011;7865;50.918;4.510;2023-04-07T22:09:07;15.20;;;6.47;;
15526;SDS011;7865;50.918;4.510;2023-04-07T22:14:10;15.03;;;6.40;;
15526;SDS011;7865;50.918;4.510;2023-04-07T22:19:12;21.73;;;8.00;;
15526;SDS011;7865;50.918;4.510;2023-04-07T22:24:14;12.80;;;6.30;;
15526;SDS011;7865;50.918;4.510;2023-04-07T22:29:16;15.10;;;6.83;;
15526;SDS011;7865;50.918;4.510;2023-04-07T22:34:18;21.97;;;6.63;;
15526;SDS011;7865;50.918;4.510;2023-04-07T22:39:20;13.50;;;6.53;;
15526;SDS011;7865;50.918;4.510;2023-04-07T22:44:24;19.23;;;6.13;;
15526;SDS011;7865;50.918;4.510;2023-04-07T22:49:25;12.37;;;7.00;;
15526;SDS011;7865;50.918;4.510;2023-04-07T22:54:28;18.67;;;7.60;;
15526;SDS011;7865;50.918;4.510;2023-04-07T22:59:30;16.47;;;7.07;;
15526;SDS011;7865;50.918;4.510;2023-04-07T23:04:32;19.07;;;7.20;;
15526;SDS011;7865;50.918;4.510;2023-04-07T23:09:34;20.30;;;8.10;;
15526;SDS011;7865;50.918;4.510;2023-04-07T23:14:36;17.73;;;8.33;;
15526;SDS011;7865;50.918;4.510;2023-04-07T23:19:38;18.67;;;8.03;;
15526;SDS011;7865;50.918;4.510;2023-04-07T23:24:40;14.70;;;7.57;;
15526;SDS011;7865;50.918;4.510;2023-04-07T23:29:43;19.77;;;7.17;;
15526;SDS011;7865;50.918;4.510;2023-04-07T23:34:44;20.13;;;7.77;;
15526;SDS011;7865;50.918;4.510;2023-04-07T23:39:47;19.83;;;7.37;;
15526;SDS011;7865;50.918;4.510;2023-04-07T23:44:49;13.87;;;7.37;;
15526;SDS011;7865;50.918;4.510;2023-04-07T23:49:51;19.50;;;8.10;;
15526;SDS011;7865;50.918;4.510;2023-04-07T23:54:53;19.33;;;8.00;;
15526;SDS011;7865;50.918;4.510;2023-04-07T23:59:54;24.57;;;9.23;;
